sensor_id;sensor_type;location;lat;lon;timestamp;pressure;altitude;pressure_sealevel;temperature;humidity
75455;BME280;64035;48.358;2.122;2022-12-07T00:00:16;101314.91;;;3.91;80.82
75455;BME280;64035;48.358;2.122;2022-12-07T00:01:27;101316.44;;;3.89;80.53
75455;BME280;64035;48.358;2.122;2022-12-07T00:02:28;101304.25;;;3.85;80.92
75455;BME280;64035;48.358;2.122;2022-12-07T00:03:29;101309.91;;;3.82;80.60
75455;BME280;64035;48.358;2.122;2022-12-07T00:04:29;101312.44;;;3.82;80.66
75455;BME280;64035;48.358;2.122;2022-12-07T00:05:29;101310.81;;;3.83;80.62
75455;BME280;64035;48.358;2.122;2022-12-07T00:06:37;101308.16;;;3.81;80.96
75455;BME280;64035;48.358;2.122;2022-12-07T00:07:38;101315.63;;;3.80;80.60
75455;BME280;64035;48.358;2.122;2022-12-07T00:08:39;101306.25;;;3.79;80.65
75455;BME280;64035;48.358;2.122;2022-12-07T00:09:39;101306.72;;;3.75;80.77
75455;BME280;64035;48.358;2.122;2022-12-07T00:10:41;101303.03;;;3.71;80.58
75455;BME280;64035;48.358;2.122;2022-12-07T00:11:50;101308.84;;;3.70;80.93
75455;BME280;64035;48.358;2.122;2022-12-07T00:12:50;101312.41;;;3.72;80.89
75455;BME280;64035;48.358;2.122;2022-12-07T00:13:56;101300.22;;;3.68;81.03
75455;BME280;64035;48.358;2.122;2022-12-07T00:14:56;101304.38;;;3.68;81.05
75455;BME280;64035;48.358;2.122;2022-12-07T00:16:11;101308.59;;;3.67;80.89
75455;BME280;64035;48.358;2.122;2022-12-07T00:17:12;101302.34;;;3.64;81.21
75455;BME280;64035;48.358;2.122;2022-12-07T00:18:12;101303.84;;;3.62;81.33
75455;BME280;64035;48.358;2.122;2022-12-07T00:19:13;101302.34;;;3.64;80.79
75455;BME280;64035;48.358;2.122;2022-12-07T00:20:14;101298.78;;;3.62;80.96
75455;BME280;64035;48.358;2.122;2022-12-07T00:21:20;101293.72;;;3.62;80.53
75455;BME280;64035;48.358;2.122;2022-12-07T00:22:21;101300.31;;;3.60;81.75
75455;BME280;64035;48.358;2.122;2022-12-07T00:23:21;101294.22;;;3.58;81.32
75455;BME280;64035;48.358;2.122;2022-12-07T00:24:22;101295.09;;;3.58;81.15
75455;BME280;64035;48.358;2.122;2022-12-07T00:25:22;101297.63;;;3.58;80.72
75455;BME280;64035;48.358;2.122;2022-12-07T00:26:28;101297.50;;;3.57;80.83
75455;BME280;64035;48.358;2.122;2022-12-07T00:27:29;101306.88;;;3.58;81.05
75455;BME280;64035;48.358;2.122;2022-12-07T00:28:29;101298.00;;;3.52;81.04
75455;BME280;64035;48.358;2.122;2022-12-07T00:29:30;101298.25;;;3.56;81.06
75455;BME280;64035;48.358;2.122;2022-12-07T00:30:30;101306.72;;;3.56;81.66
75455;BME280;64035;48.358;2.122;2022-12-07T00:31:35;101307.47;;;3.55;81.34
75455;BME280;64035;48.358;2.122;2022-12-07T00:32:38;101299.50;;;3.50;81.34
75455;BME280;64035;48.358;2.122;2022-12-07T00:33:39;101298.09;;;3.54;80.72
75455;BME280;64035;48.358;2.122;2022-12-07T00:34:39;101302.28;;;3.53;81.05
75455;BME280;64035;48.358;2.122;2022-12-07T00:35:40;101298.00;;;3.52;81.13
75455;BME280;64035;48.358;2.122;2022-12-07T00:36:40;101302.00;;;3.50;80.08
75455;BME280;64035;48.358;2.122;2022-12-07T00:37:41;101293.53;;;3.50;80.39
75455;BME280;64035;48.358;2.122;2022-12-07T00:38:42;101300.38;;;3.51;80.96
75455;BME280;64035;48.358;2.122;2022-12-07T00:39:42;101290.59;;;3.45;80.19
75455;BME280;64035;48.358;2.122;2022-12-07T00:40:42;101296.66;;;3.47;80.58
75455;BME280;64035;48.358;2.122;2022-12-07T00:41:43;101299.19;;;3.47;81.15
75455;BME280;64035;48.358;2.122;2022-12-07T00:42:43;101292.09;;;3.43;81.19
75455;BME280;64035;48.358;2.122;2022-12-07T00:43:45;101294.88;;;3.46;81.25
75455;BME280;64035;48.358;2.122;2022-12-07T00:44:46;101284.75;;;3.46;81.42
75455;BME280;64035;48.358;2.122;2022-12-07T00:45:46;101296.53;;;3.46;81.30
75455;BME280;64035;48.358;2.122;2022-12-07T00:46:47;101285.09;;;3.41;81.55
75455;BME280;64035;48.358;2.122;2022-12-07T00:47:50;101287.25;;;3.36;80.87
75455;BME280;64035;48.358;2.122;2022-12-07T00:48:52;101300.72;;;3.45;81.39
75455;BME280;64035;48.358;2.122;2022-12-07T00:49:52;101291.66;;;3.39;81.03
75455;BME280;64035;48.358;2.122;2022-12-07T00:50:53;101285.75;;;3.38;81.55
75455;BME280;64035;48.358;2.122;2022-12-07T00:51:53;101284.84;;;3.38;81.37
75455;BME280;64035;48.358;2.122;2022-12-07T00:52:54;101281.44;;;3.37;81.33
75455;BME280;64035;48.358;2.122;2022-12-07T00:53:54;101279.66;;;3.36;81.11
75455;BME280;64035;48.358;2.122;2022-12-07T00:54:55;101285.75;;;3.38;81.13
75455;BME280;64035;48.358;2.122;2022-12-07T00:55:55;101284.56;;;3.35;81.26
75455;BME280;64035;48.358;2.122;2022-12-07T00:56:56;101278.63;;;3.34;81.57
75455;BME280;64035;48.358;2.122;2022-12-07T00:57:56;101281.28;;;3.36;81.15
75455;BME280;64035;48.358;2.122;2022-12-07T00:59:01;101290.91;;;3.40;80.92
75455;BME280;64035;48.358;2.122;2022-12-07T01:00:03;101282.19;;;3.36;81.26
75455;BME280;64035;48.358;2.122;2022-12-07T01:01:05;101287.25;;;3.36;81.49
75455;BME280;64035;48.358;2.122;2022-12-07T01:02:06;101280.69;;;3.38;81.27
75455;BME280;64035;48.358;2.122;2022-12-07T01:03:07;101285.47;;;3.35;81.32
75455;BME280;64035;48.358;2.122;2022-12-07T01:04:08;101282.78;;;3.34;80.78
75455;BME280;64035;48.358;2.122;2022-12-07T01:05:08;101289.78;;;3.36;81.38
75455;BME280;64035;48.358;2.122;2022-12-07T01:06:09;101282.03;;;3.35;81.13
75455;BME280;64035;48.358;2.122;2022-12-07T01:07:09;101280.25;;;3.34;81.12
75455;BME280;64035;48.358;2.122;2022-12-07T01:08:09;101282.63;;;3.32;81.16
75455;BME280;64035;48.358;2.122;2022-12-07T01:09:10;101276.69;;;3.32;81.22
75455;BME280;64035;48.358;2.122;2022-12-07T01:10:14;101285.16;;;3.32;81.25
75455;BME280;64035;48.358;2.122;2022-12-07T01:11:18;101283.41;;;3.31;81.05
75455;BME280;64035;48.358;2.122;2022-12-07T01:12:19;101278.06;;;3.28;81.69
75455;BME280;64035;48.358;2.122;2022-12-07T01:13:19;101274.50;;;3.26;81.08
75455;BME280;64035;48.358;2.122;2022-12-07T01:14:20;101271.81;;;3.25;81.65
75455;BME280;64035;48.358;2.122;2022-12-07T01:15:20;101278.22;;;3.30;81.54
75455;BME280;64035;48.358;2.122;2022-12-07T01:16:25;101283.28;;;3.30;81.36
75455;BME280;64035;48.358;2.122;2022-12-07T01:17:26;101276.13;;;3.26;81.07
75455;BME280;64035;48.358;2.122;2022-12-07T01:18:33;101280.59;;;3.28;81.11
75455;BME280;64035;48.358;2.122;2022-12-07T01:19:34;101279.69;;;3.28;81.04
75455;BME280;64035;48.358;2.122;2022-12-07T01:20:34;101276.88;;;3.25;81.19
75455;BME280;64035;48.358;2.122;2022-12-07T01:21:38;101281.94;;;3.25;81.29
75455;BME280;64035;48.358;2.122;2022-12-07T01:22:40;101280.31;;;3.25;80.31
75455;BME280;64035;48.358;2.122;2022-12-07T01:23:41;101273.06;;;3.20;80.54
75455;BME280;64035;48.358;2.122;2022-12-07T01:24:47;101277.53;;;3.22;81.26
75455;BME280;64035;48.358;2.122;2022-12-07T01:25:54;101276.88;;;3.25;80.35
75455;BME280;64035;48.358;2.122;2022-12-07T01:26:55;101277.38;;;3.21;80.62
75455;BME280;64035;48.358;2.122;2022-12-07T01:27:55;101277.53;;;3.22;81.32
75455;BME280;64035;48.358;2.122;2022-12-07T01:28:56;101274.09;;;3.22;81.14
75455;BME280;64035;48.358;2.122;2022-12-07T01:29:59;101270.53;;;3.20;81.65
75455;BME280;64035;48.358;2.122;2022-12-07T01:31:11;101286.91;;;3.23;81.51
75455;BME280;64035;48.358;2.122;2022-12-07T01:32:12;101280.94;;;3.23;81.39
75455;BME280;64035;48.358;2.122;2022-12-07T01:33:12;101275.75;;;3.21;81.60
75455;BME280;64035;48.358;2.122;2022-12-07T01:34:12;101280.06;;;3.22;81.69
75455;BME280;64035;48.358;2.122;2022-12-07T01:35:13;101278.25;;;3.21;81.50
75455;BME280;64035;48.358;2.122;2022-12-07T01:36:25;101276.47;;;3.20;81.37
75455;BME280;64035;48.358;2.122;2022-12-07T01:37:25;101274.69;;;3.19;81.67
75455;BME280;64035;48.358;2.122;2022-12-07T01:38:26;101276.47;;;3.20;81.56
75455;BME280;64035;48.358;2.122;2022-12-07T01:39:26;101272.16;;;3.19;81.69
75455;BME280;64035;48.358;2.122;2022-12-07T01:40:36;101283.31;;;3.21;81.74
75455;BME280;64035;48.358;2.122;2022-12-07T01:41:39;101282.56;;;3.22;81.39
75455;BME280;64035;48.358;2.122;2022-12-07T01:42:40;101275.75;;;3.21;81.47
75455;BME280;64035;48.358;2.122;2022-12-07T01:46:21;101284.22;;;3.22;81.75
75455;BME280;64035;48.358;2.122;2022-12-07T01:47:21;101290.91;;;3.21;81.83
75455;BME280;64035;48.358;2.122;2022-12-07T01:48:27;101276.19;;;3.17;81.82
75455;BME280;64035;48.358;2.122;2022-12-07T01:50:35;101282.28;;;3.19;81.45
75455;BME280;64035;48.358;2.122;2022-12-07T01:51:37;101283.94;;;3.19;81.87
75455;BME280;64035;48.358;2.122;2022-12-07T01:52:39;101283.03;;;3.18;81.30
75455;BME280;64035;48.358;2.122;2022-12-07T01:53:43;101287.50;;;3.21;81.55
75455;BME280;64035;48.358;2.122;2022-12-07T01:54:47;101285.72;;;3.20;81.41
75455;BME280;64035;48.358;2.122;2022-12-07T01:55:53;101292.56;;;3.21;81.43
75455;BME280;64035;48.358;2.122;2022-12-07T01:56:56;101292.41;;;3.19;81.97
75455;BME280;64035;48.358;2.122;2022-12-07T01:57:57;101288.09;;;3.18;81.82
75455;BME280;64035;48.358;2.122;2022-12-07T01:58:59;101288.38;;;3.21;82.43
75455;BME280;64035;48.358;2.122;2022-12-07T02:00:00;101281.25;;;3.17;81.14
75455;BME280;64035;48.358;2.122;2022-12-07T02:01:01;101283.94;;;3.19;81.67
75455;BME280;64035;48.358;2.122;2022-12-07T02:02:04;101287.50;;;3.21;81.84
75455;BME280;64035;48.358;2.122;2022-12-07T02:03:18;101278.72;;;3.17;81.54
75455;BME280;64035;48.358;2.122;2022-12-07T02:04:21;101274.16;;;3.13;81.39
75455;BME280;64035;48.358;2.122;2022-12-07T02:05:23;101289.13;;;3.20;81.68
75455;BME280;64035;48.358;2.122;2022-12-07T02:06:25;101285.72;;;3.20;81.50
75455;BME280;64035;48.358;2.122;2022-12-07T02:07:26;101282.16;;;3.18;81.80
75455;BME280;64035;48.358;2.122;2022-12-07T02:08:28;101290.91;;;3.21;81.51
75455;BME280;64035;48.358;2.122;2022-12-07T02:09:29;101287.50;;;3.21;81.33
75455;BME280;64035;48.358;2.122;2022-12-07T02:10:30;101286.59;;;3.20;81.64
75455;BME280;64035;48.358;2.122;2022-12-07T02:11:31;101286.47;;;3.19;81.52
75455;BME280;64035;48.358;2.122;2022-12-07T02:12:31;101282.03;;;3.16;81.72
75455;BME280;64035;48.358;2.122;2022-12-07T02:13:34;101279.34;;;3.14;81.59
75455;BME280;64035;48.358;2.122;2022-12-07T02:14:35;101283.03;;;3.18;81.99
75455;BME280;64035;48.358;2.122;2022-12-07T02:18:17;101294.34;;;3.22;81.95
75455;BME280;64035;48.358;2.122;2022-12-07T02:20:51;101296.13;;;3.23;81.90
75455;BME280;64035;48.358;2.122;2022-12-07T02:24:18;101292.69;;;3.22;82.42
75455;BME280;64035;48.358;2.122;2022-12-07T02:26:06;101295.97;;;3.21;82.02
75455;BME280;64035;48.358;2.122;2022-12-07T02:30:08;101291.66;;;3.20;81.70
75455;BME280;64035;48.358;2.122;2022-12-07T02:31:18;101279.75;;;3.19;81.55
75455;BME280;64035;48.358;2.122;2022-12-07T02:32:45;101285.56;;;3.18;81.21
75455;BME280;64035;48.358;2.122;2022-12-07T02:33:53;101283.78;;;3.17;81.14
75455;BME280;64035;48.358;2.122;2022-12-07T02:36:05;101297.75;;;3.22;82.41
75455;BME280;64035;48.358;2.122;2022-12-07T02:37:19;101296.13;;;3.23;81.93
75455;BME280;64035;48.358;2.122;2022-12-07T02:38:43;101293.59;;;3.23;81.95
75455;BME280;64035;48.358;2.122;2022-12-07T02:39:53;101290.91;;;3.21;82.38
75455;BME280;64035;48.358;2.122;2022-12-07T02:41:29;101293.72;;;3.24;81.84
75455;BME280;64035;48.358;2.122;2022-12-07T02:42:42;101291.06;;;3.23;81.71
75455;BME280;64035;48.358;2.122;2022-12-07T02:43:47;101291.94;;;3.23;81.65
75455;BME280;64035;48.358;2.122;2022-12-07T02:44:51;101298.00;;;3.25;81.33
75455;BME280;64035;48.358;2.122;2022-12-07T02:45:56;101292.34;;;3.28;81.65
75455;BME280;64035;48.358;2.122;2022-12-07T02:47:02;101288.69;;;3.24;81.75
75455;BME280;64035;48.358;2.122;2022-12-07T02:48:04;101286.16;;;3.24;81.86
75455;BME280;64035;48.358;2.122;2022-12-07T02:49:07;101287.78;;;3.24;81.49
75455;BME280;64035;48.358;2.122;2022-12-07T02:50:09;101295.03;;;3.29;81.88
75455;BME280;64035;48.358;2.122;2022-12-07T02:51:10;101287.91;;;3.25;81.87
75455;BME280;64035;48.358;2.122;2022-12-07T02:52:13;101282.09;;;3.26;82.02
75455;BME280;64035;48.358;2.122;2022-12-07T02:54:33;101290.56;;;3.27;82.08
75455;BME280;64035;48.358;2.122;2022-12-07T02:55:38;101288.94;;;3.27;82.27
75455;BME280;64035;48.358;2.122;2022-12-07T02:56:45;101284.75;;;3.28;82.11
75455;BME280;64035;48.358;2.122;2022-12-07T02:58:06;101275.13;;;3.24;81.78
75455;BME280;64035;48.358;2.122;2022-12-07T03:00:58;101281.63;;;3.30;82.17
75455;BME280;64035;48.358;2.122;2022-12-07T03:03:25;101271.50;;;3.30;82.51
75455;BME280;64035;48.358;2.122;2022-12-07T03:06:07;101280.09;;;3.32;81.93
75455;BME280;64035;48.358;2.122;2022-12-07T03:08:37;101263.50;;;3.26;82.63
75455;BME280;64035;48.358;2.122;2022-12-07T03:09:59;101274.94;;;3.31;82.26
75455;BME280;64035;48.358;2.122;2022-12-07T03:11:06;101266.31;;;3.29;81.86
75455;BME280;64035;48.358;2.122;2022-12-07T03:12:23;101267.94;;;3.28;81.98
75455;BME280;64035;48.358;2.122;2022-12-07T03:14:50;101275.53;;;3.28;81.41
75455;BME280;64035;48.358;2.122;2022-12-07T03:17:21;101267.66;;;3.25;82.04
75455;BME280;64035;48.358;2.122;2022-12-07T03:18:29;101277.91;;;3.27;81.19
75455;BME280;64035;48.358;2.122;2022-12-07T03:19:31;101264.38;;;3.26;81.76
75455;BME280;64035;48.358;2.122;2022-12-07T03:20:35;101266.91;;;3.26;81.88
75455;BME280;64035;48.358;2.122;2022-12-07T03:21:40;101265.41;;;3.28;81.86
75455;BME280;64035;48.358;2.122;2022-12-07T03:22:42;101265.13;;;3.25;82.15
75455;BME280;64035;48.358;2.122;2022-12-07T03:23:49;101267.66;;;3.25;82.33
75455;BME280;64035;48.358;2.122;2022-12-07T03:24:55;101257.53;;;3.25;82.27
75455;BME280;64035;48.358;2.122;2022-12-07T03:25:59;101263.63;;;3.27;82.58
75455;BME280;64035;48.358;2.122;2022-12-07T03:27:08;101267.81;;;3.27;82.39
75455;BME280;64035;48.358;2.122;2022-12-07T03:28:10;101272.88;;;3.27;82.43
75455;BME280;64035;48.358;2.122;2022-12-07T03:29:17;101276.44;;;3.29;82.04
75455;BME280;64035;48.358;2.122;2022-12-07T03:31:46;101277.31;;;3.29;82.56
75455;BME280;64035;48.358;2.122;2022-12-07T03:33:06;101270.63;;;3.30;82.40
75455;BME280;64035;48.358;2.122;2022-12-07T03:34:40;101269.72;;;3.29;82.29
75455;BME280;64035;48.358;2.122;2022-12-07T03:35:48;101277.47;;;3.31;82.47
75455;BME280;64035;48.358;2.122;2022-12-07T03:37:06;101277.19;;;3.28;82.22
75455;BME280;64035;48.358;2.122;2022-12-07T03:39:29;101266.91;;;3.26;82.47
75455;BME280;64035;48.358;2.122;2022-12-07T03:41:00;101270.47;;;3.28;82.94
75455;BME280;64035;48.358;2.122;2022-12-07T03:42:04;101266.31;;;3.29;82.55
75455;BME280;64035;48.358;2.122;2022-12-07T03:43:05;101263.50;;;3.26;82.56
75455;BME280;64035;48.358;2.122;2022-12-07T03:44:07;101263.50;;;3.26;82.28
75455;BME280;64035;48.358;2.122;2022-12-07T03:45:08;101260.22;;;3.27;82.32
75455;BME280;64035;48.358;2.122;2022-12-07T03:46:39;101265.41;;;3.28;82.87
75455;BME280;64035;48.358;2.122;2022-12-07T03:47:53;101262.75;;;3.27;82.92
75455;BME280;64035;48.358;2.122;2022-12-07T03:51:57;101266.91;;;3.26;82.82
75455;BME280;64035;48.358;2.122;2022-12-07T03:53:08;101261.72;;;3.25;82.73
75455;BME280;64035;48.358;2.122;2022-12-07T03:54:14;101265.13;;;3.25;82.13
75455;BME280;64035;48.358;2.122;2022-12-07T03:55:39;101265.03;;;3.24;82.55
75455;BME280;64035;48.358;2.122;2022-12-07T03:56:42;101269.28;;;3.25;82.64
75455;BME280;64035;48.358;2.122;2022-12-07T03:57:48;101264.38;;;3.26;83.03
75455;BME280;64035;48.358;2.122;2022-12-07T03:58:51;101258.31;;;3.24;82.36
75455;BME280;64035;48.358;2.122;2022-12-07T03:59:54;101257.53;;;3.25;82.46
75455;BME280;64035;48.358;2.122;2022-12-07T04:00:56;101263.63;;;3.27;82.51
75455;BME280;64035;48.358;2.122;2022-12-07T04:02:04;101260.22;;;3.27;82.22
75455;BME280;64035;48.358;2.122;2022-12-07T04:03:05;101255.16;;;3.27;82.08
75455;BME280;64035;48.358;2.122;2022-12-07T04:04:05;101248.94;;;3.23;81.40
75455;BME280;64035;48.358;2.122;2022-12-07T04:05:06;101259.97;;;3.24;82.17
75455;BME280;64035;48.358;2.122;2022-12-07T04:06:09;101260.97;;;3.26;82.69
75455;BME280;64035;48.358;2.122;2022-12-07T04:07:10;101267.66;;;3.25;82.49
75455;BME280;64035;48.358;2.122;2022-12-07T04:08:10;101259.31;;;3.26;82.58
75455;BME280;64035;48.358;2.122;2022-12-07T04:09:11;101241.47;;;3.25;82.39
75455;BME280;64035;48.358;2.122;2022-12-07T04:10:12;101244.78;;;3.24;82.46
75455;BME280;64035;48.358;2.122;2022-12-07T04:11:12;101254.00;;;3.23;82.86
75455;BME280;64035;48.358;2.122;2022-12-07T04:12:12;101255.78;;;3.24;82.54
75455;BME280;64035;48.358;2.122;2022-12-07T04:13:13;101249.94;;;3.25;83.14
75455;BME280;64035;48.358;2.122;2022-12-07T04:14:13;101245.53;;;3.23;83.00
75455;BME280;64035;48.358;2.122;2022-12-07T04:15:19;101251.47;;;3.23;82.73
75455;BME280;64035;48.358;2.122;2022-12-07T04:16:20;101250.72;;;3.24;82.04
75455;BME280;64035;48.358;2.122;2022-12-07T04:17:20;101239.72;;;3.24;82.42
75455;BME280;64035;48.358;2.122;2022-12-07T04:18:21;101236.31;;;3.23;82.58
75455;BME280;64035;48.358;2.122;2022-12-07T04:19:29;101247.56;;;3.27;82.93
75455;BME280;64035;48.358;2.122;2022-12-07T04:20:30;101237.03;;;3.22;82.38
75455;BME280;64035;48.358;2.122;2022-12-07T04:21:30;101231.09;;;3.22;83.26
75455;BME280;64035;48.358;2.122;2022-12-07T04:22:30;101240.63;;;3.24;82.53
75455;BME280;64035;48.358;2.122;2022-12-07T04:23:34;101243.41;;;3.27;82.50
75455;BME280;64035;48.358;2.122;2022-12-07T04:24:34;101231.34;;;3.25;82.05
75455;BME280;64035;48.358;2.122;2022-12-07T04:25:37;101238.34;;;3.27;82.74
75455;BME280;64035;48.358;2.122;2022-12-07T04:26:38;101237.31;;;3.25;82.59
75455;BME280;64035;48.358;2.122;2022-12-07T04:27:38;101234.03;;;3.26;82.53
75455;BME280;64035;48.358;2.122;2022-12-07T04:28:39;101237.44;;;3.27;82.16
75455;BME280;64035;48.358;2.122;2022-12-07T04:29:39;101233.03;;;3.24;82.23
75455;BME280;64035;48.358;2.122;2022-12-07T04:30:39;101229.72;;;3.25;82.44
75455;BME280;64035;48.358;2.122;2022-12-07T04:31:40;101241.00;;;3.29;82.44
75455;BME280;64035;48.358;2.122;2022-12-07T04:32:40;101240.13;;;3.28;82.67
75455;BME280;64035;48.358;2.122;2022-12-07T04:33:41;101232.25;;;3.25;83.27
75455;BME280;64035;48.358;2.122;2022-12-07T04:34:41;101238.94;;;3.25;82.71
75455;BME280;64035;48.358;2.122;2022-12-07T04:35:42;101237.44;;;3.27;82.58
75455;BME280;64035;48.358;2.122;2022-12-07T04:36:43;101240.88;;;3.27;82.50
75455;BME280;64035;48.358;2.122;2022-12-07T04:37:44;101237.44;;;3.27;82.80
75455;BME280;64035;48.358;2.122;2022-12-07T04:38:44;101240.13;;;3.28;83.00
75455;BME280;64035;48.358;2.122;2022-12-07T04:39:45;101237.44;;;3.27;82.80
75455;BME280;64035;48.358;2.122;2022-12-07T04:40:46;101236.69;;;3.28;82.17
75455;BME280;64035;48.358;2.122;2022-12-07T04:41:46;101241.91;;;3.29;82.91
75455;BME280;64035;48.358;2.122;2022-12-07T04:42:47;101232.53;;;3.28;82.72
75455;BME280;64035;48.358;2.122;2022-12-07T04:43:47;101231.50;;;3.26;82.32
75455;BME280;64035;48.358;2.122;2022-12-07T04:44:47;101234.78;;;3.25;82.02
75455;BME280;64035;48.358;2.122;2022-12-07T04:45:48;101236.69;;;3.28;83.12
75455;BME280;64035;48.358;2.122;2022-12-07T04:46:48;101229.72;;;3.25;82.73
75455;BME280;64035;48.358;2.122;2022-12-07T04:47:49;101230.88;;;3.29;82.68
75455;BME280;64035;48.358;2.122;2022-12-07T04:48:51;101234.31;;;3.29;82.74
75455;BME280;64035;48.358;2.122;2022-12-07T04:49:52;101231.50;;;3.26;82.60
75455;BME280;64035;48.358;2.122;2022-12-07T04:50:52;101219.34;;;3.22;82.23
75455;BME280;64035;48.358;2.122;2022-12-07T04:51:53;101228.06;;;3.26;82.17
75455;BME280;64035;48.358;2.122;2022-12-07T04:52:53;101228.22;;;3.27;82.12
75455;BME280;64035;48.358;2.122;2022-12-07T04:53:55;101223.16;;;3.27;82.12
75455;BME280;64035;48.358;2.122;2022-12-07T04:54:55;101227.06;;;3.24;82.16
75455;BME280;64035;48.358;2.122;2022-12-07T04:55:56;101231.34;;;3.25;82.60
75455;BME280;64035;48.358;2.122;2022-12-07T04:56:56;101236.56;;;3.26;82.88
75455;BME280;64035;48.358;2.122;2022-12-07T04:57:56;101228.81;;;3.25;82.65
75455;BME280;64035;48.358;2.122;2022-12-07T04:58:57;101226.44;;;3.26;83.24
75455;BME280;64035;48.358;2.122;2022-12-07T04:59:57;101225.28;;;3.23;83.11
75455;BME280;64035;48.358;2.122;2022-12-07T05:00:58;101227.31;;;3.27;82.29
75455;BME280;64035;48.358;2.122;2022-12-07T05:01:58;101228.81;;;3.25;82.33
75455;BME280;64035;48.358;2.122;2022-12-07T05:02:59;101227.81;;;3.23;83.05
75455;BME280;64035;48.358;2.122;2022-12-07T05:03:59;101227.31;;;3.27;83.51
75455;BME280;64035;48.358;2.122;2022-12-07T05:05:00;101228.22;;;3.27;83.07
75455;BME280;64035;48.358;2.122;2022-12-07T05:06:00;101231.50;;;3.26;81.70
75455;BME280;64035;48.358;2.122;2022-12-07T05:07:00;101229.59;;;3.24;82.49
75455;BME280;64035;48.358;2.122;2022-12-07T05:08:01;101233.78;;;3.23;82.67
75455;BME280;64035;48.358;2.122;2022-12-07T05:09:02;101237.59;;;3.28;82.55
75455;BME280;64035;48.358;2.122;2022-12-07T05:10:03;101223.50;;;3.22;82.70
75455;BME280;64035;48.358;2.122;2022-12-07T05:11:05;101223.00;;;3.26;81.85
75455;BME280;64035;48.358;2.122;2022-12-07T05:12:05;101222.75;;;3.23;82.40
75455;BME280;64035;48.358;2.122;2022-12-07T05:13:06;101238.34;;;3.27;82.47
75455;BME280;64035;48.358;2.122;2022-12-07T05:14:20;101232.53;;;3.28;82.54
75455;BME280;64035;48.358;2.122;2022-12-07T05:15:20;101230.59;;;3.26;81.77
75455;BME280;64035;48.358;2.122;2022-12-07T05:16:20;101228.22;;;3.27;82.14
75455;BME280;64035;48.358;2.122;2022-12-07T05:17:21;101240.88;;;3.27;82.80
75455;BME280;64035;48.358;2.122;2022-12-07T05:18:21;101233.13;;;3.26;82.14
75455;BME280;64035;48.358;2.122;2022-12-07T05:19:22;101218.31;;;3.20;82.05
75455;BME280;64035;48.358;2.122;2022-12-07T05:20:22;101229.72;;;3.25;82.56
75455;BME280;64035;48.358;2.122;2022-12-07T05:21:23;101228.81;;;3.25;82.71
75455;BME280;64035;48.358;2.122;2022-12-07T05:22:23;101233.13;;;3.26;82.76
75455;BME280;64035;48.358;2.122;2022-12-07T05:23:28;101225.44;;;3.24;82.48
75455;BME280;64035;48.358;2.122;2022-12-07T05:24:28;101226.28;;;3.25;82.93
75455;BME280;64035;48.358;2.122;2022-12-07T05:25:28;101236.56;;;3.26;83.05
75455;BME280;64035;48.358;2.122;2022-12-07T05:26:29;101233.88;;;3.25;82.93
75455;BME280;64035;48.358;2.122;2022-12-07T05:27:29;101233.78;;;3.23;82.49
75455;BME280;64035;48.358;2.122;2022-12-07T05:28:30;101237.94;;;3.23;82.75
75455;BME280;64035;48.358;2.122;2022-12-07T05:29:30;101240.63;;;3.24;82.87
75455;BME280;64035;48.358;2.122;2022-12-07T05:30:31;101242.34;;;3.25;82.12
75455;BME280;64035;48.358;2.122;2022-12-07T05:31:32;101240.63;;;3.24;82.15
75455;BME280;64035;48.358;2.122;2022-12-07T05:32:32;101232.13;;;3.24;82.08
75455;BME280;64035;48.358;2.122;2022-12-07T05:33:32;101226.94;;;3.22;82.10
75455;BME280;64035;48.358;2.122;2022-12-07T05:34:33;101235.56;;;3.24;82.37
75455;BME280;64035;48.358;2.122;2022-12-07T05:35:33;101239.72;;;3.24;82.21
75455;BME280;64035;48.358;2.122;2022-12-07T05:36:34;101226.63;;;3.19;82.75
75455;BME280;64035;48.358;2.122;2022-12-07T05:37:34;101219.81;;;3.18;82.13
75455;BME280;64035;48.358;2.122;2022-12-07T05:38:35;101234.53;;;3.22;81.94
75455;BME280;64035;48.358;2.122;2022-12-07T05:39:38;101224.09;;;3.19;81.74
75455;BME280;64035;48.358;2.122;2022-12-07T05:40:40;101222.97;;;3.16;81.76
75455;BME280;64035;48.358;2.122;2022-12-07T05:41:41;101228.44;;;3.20;81.38
75455;BME280;64035;48.358;2.122;2022-12-07T05:43:00;101229.81;;;3.17;83.07
75455;BME280;64035;48.358;2.122;2022-12-07T05:44:00;101223.06;;;3.17;81.65
75455;BME280;64035;48.358;2.122;2022-12-07T05:45:01;101222.22;;;3.17;81.77
75455;BME280;64035;48.358;2.122;2022-12-07T05:46:02;101224.59;;;3.15;81.91
75455;BME280;64035;48.358;2.122;2022-12-07T05:47:03;101229.91;;;3.18;81.94
75455;BME280;64035;48.358;2.122;2022-12-07T05:48:03;101216.88;;;3.13;82.50
75455;BME280;64035;48.358;2.122;2022-12-07T05:49:04;101228.13;;;3.17;81.82
75455;BME280;64035;48.358;2.122;2022-12-07T05:50:05;101224.75;;;3.17;81.98
75455;BME280;64035;48.358;2.122;2022-12-07T05:51:06;101222.22;;;3.17;81.28
75455;BME280;64035;48.358;2.122;2022-12-07T05:52:06;101224.59;;;3.15;82.44
75455;BME280;64035;48.358;2.122;2022-12-07T05:53:07;101221.94;;;3.13;81.67
75455;BME280;64035;48.358;2.122;2022-12-07T05:54:07;101233.97;;;3.16;82.06
75455;BME280;64035;48.358;2.122;2022-12-07T05:55:08;101232.19;;;3.15;82.15
75455;BME280;64035;48.358;2.122;2022-12-07T05:56:08;101227.88;;;3.14;81.48
75455;BME280;64035;48.358;2.122;2022-12-07T05:57:09;101225.34;;;3.14;81.08
75455;BME280;64035;48.358;2.122;2022-12-07T05:58:09;101231.16;;;3.13;82.10
75455;BME280;64035;48.358;2.122;2022-12-07T05:59:28;101233.41;;;3.10;81.63
75455;BME280;64035;48.358;2.122;2022-12-07T06:00:29;101225.94;;;3.11;81.56
75455;BME280;64035;48.358;2.122;2022-12-07T06:01:29;101232.03;;;3.13;82.18
75455;BME280;64035;48.358;2.122;2022-12-07T06:02:30;101223.78;;;3.06;82.39
75455;BME280;64035;48.358;2.122;2022-12-07T06:03:30;101229.22;;;3.10;82.43
75455;BME280;64035;48.358;2.122;2022-12-07T06:04:35;101230.59;;;3.07;81.75
75455;BME280;64035;48.358;2.122;2022-12-07T06:05:35;101234.91;;;3.08;82.26